Time;durP1;ratioP1;P1;durP2;ratioP2;P2;SDS_P1;SDS_P2;PMS_P1;PMS_P2;Temp;Humidity;BMP_temperature;BMP_pressure;BME280_temperature;BME280_humidity;BME280_pressure;Samples;Min_cycle;Max_cycle;Signal;HPM_P1;HPM_P2
2022/04/26 03:36:17;;;;;;;8.93;4.45;;;;;;;4.29;81.41;100715.69;6279913;22;20113;-70
2022/04/26 03:38:43;;;;;;;13.05;5.03;;;;;;;4.29;81.75;100715.69;6296059;22;20011;-69
2022/04/26 03:41:10;;;;;;;10.23;5.00;;;;;;;4.26;81.75;100713.41;6278033;22;20079;-70
2022/04/26 03:43:56;;;;;;;9.38;4.57;;;;;;;4.15;81.96;100701.38;6242746;22;20014;-75
2022/04/26 03:46:22;;;;;;;8.88;4.88;;;;;;;4.16;81.89;100703.06;6277300;22;20011;-74
2022/04/26 03:48:47;;;;;;;11.48;4.55;;;;;;;4.16;82.07;100707.63;6279187;22;20015;-75
2022/04/26 03:51:13;;;;;;;6.35;4.68;;;;;;;4.22;82.54;100714.91;6251007;22;20008;-74
2022/04/26 03:53:39;;;;;;;9.88;5.05;;;;;;;4.17;82.89;100707.41;6247075;22;20004;-75
2022/04/26 03:56:05;;;;;;;8.38;5.72;;;;;;;4.19;83.21;100712.59;6253511;22;20015;-74
2022/04/26 03:58:31;;;;;;;8.57;5.03;;;;;;;4.09;83.35;100701.41;6266419;22;20129;-74
2022/04/26 04:01:00;;;;;;;10.90;5.78;;;;;;;4.17;83.88;100725.53;6253506;22;20633;-76
2022/04/26 04:03:26;;;;;;;12.38;6.43;;;;;;;4.10;83.96;100724.72;6242579;22;20033;-76
2022/04/26 04:05:52;;;;;;;10.02;5.30;;;;;;;4.04;83.95;100714.78;6276547;22;20022;-76
2022/04/26 04:08:18;;;;;;;13.20;5.90;;;;;;;3.96;84.29;100697.75;6263691;22;20004;-75
2022/04/26 04:10:44;;;;;;;11.10;6.30;;;;;;;4.05;84.25;100721.84;6277048;22;20003;-75
2022/04/26 04:13:10;;;;;;;13.45;5.90;;;;;;;3.95;83.70;100717.72;6252214;22;20004;-75
2022/04/26 04:15:36;;;;;;;10.38;5.05;;;;;;;3.89;84.80;100724.00;6242398;22;20010;-73
2022/04/26 04:18:02;;;;;;;11.00;6.45;;;;;;;3.74;84.34;100716.16;6274825;22;20007;-74
2022/04/26 04:20:29;;;;;;;10.60;5.28;;;;;;;3.91;84.91;100737.31;6245571;22;20532;-75
2022/04/26 04:22:55;;;;;;;9.73;6.53;;;;;;;3.91;84.61;100727.31;6275993;22;20544;-75
2022/04/26 04:25:21;;;;;;;12.68;5.80;;;;;;;3.87;84.81;100725.25;6303141;22;20025;-74
2022/04/26 04:27:48;;;;;;;8.82;6.13;;;;;;;3.88;84.34;100733.16;6321374;22;19999;-75
2022/04/26 04:30:14;;;;;;;9.65;6.07;;;;;;;3.86;84.61;100737.94;6270051;22;20015;-76
2022/04/26 04:32:40;;;;;;;8.77;5.75;;;;;;;3.72;85.11;100722.81;6234211;23;20334;-72
2022/04/26 04:35:06;;;;;;;9.18;5.45;;;;;;;3.70;84.19;100731.13;6271143;22;20415;-71
2022/04/26 04:37:31;;;;;;;9.13;5.40;;;;;;;3.61;84.70;100727.84;6248662;22;20008;-71
2022/04/26 04:40:05;;;;;;;8.30;4.80;;;;;;;3.66;84.87;100746.13;6273218;22;20050;-70
2022/04/26 04:42:31;;;;;;;5.03;4.30;;;;;;;3.72;84.74;100757.97;6227140;22;20030;-70
2022/04/26 04:44:57;;;;;;;6.10;5.10;;;;;;;3.69;85.14;100745.69;6280219;22;20240;-74
2022/04/26 04:47:22;;;;;;;5.35;4.30;;;;;;;3.69;85.39;100747.59;6280800;22;20012;-75
2022/04/26 04:49:48;;;;;;;8.07;5.50;;;;;;;3.78;85.21;100765.22;6254193;22;20012;-73
2022/04/26 04:52:13;;;;;;;5.20;3.90;;;;;;;3.69;84.72;100740.28;6247584;22;20017;-74
2022/04/26 04:54:39;;;;;;;7.25;4.43;;;;;;;3.90;84.86;100760.84;6252889;22;20267;-74
2022/04/26 04:57:05;;;;;;;5.95;4.82;;;;;;;3.86;84.86;100756.91;6278323;22;20353;-75
2022/04/26 04:59:30;;;;;;;7.75;4.85;;;;;;;3.98;85.00;100768.69;6279544;22;20101;-75
2022/04/26 05:01:56;;;;;;;6.60;5.00;;;;;;;4.04;84.82;100775.13;6277445;22;20016;-75
2022/04/26 05:04:21;;;;;;;6.95;5.20;;;;;;;4.09;84.85;100779.91;6253777;22;20018;-76
2022/04/26 05:06:46;;;;;;;6.57;4.85;;;;;;;4.12;84.82;100776.78;6304323;22;20062;-75
2022/04/26 05:09:12;;;;;;;6.65;5.05;;;;;;;4.03;84.77;100762.66;6278665;22;20030;-76
2022/04/26 05:11:37;;;;;;;6.68;4.38;;;;;;;4.15;84.44;100781.78;6252521;22;20008;-76
2022/04/26 05:14:03;;;;;;;5.38;4.40;;;;;;;4.26;84.62;100791.91;6277728;22;20606;-72
2022/04/26 05:16:28;;;;;;;7.05;4.57;;;;;;;4.30;84.90;100790.44;6273481;22;20018;-75
2022/04/26 05:18:54;;;;;;;8.30;5.78;;;;;;;4.42;84.09;100792.47;6277239;22;20057;-74
2022/04/26 05:21:19;;;;;;;8.23;5.22;;;;;;;4.49;83.96;100798.69;6275040;22;20011;-74
2022/04/26 05:26:29;;;;;;;5.93;4.53;;;;;;;4.54;83.97;100797.00;6251640;22;20057;-75
2022/04/26 05:28:55;;;;;;;5.75;4.72;;;;;;;4.63;83.45;100808.41;6251599;22;20220;-74
2022/04/26 05:31:20;;;;;;;8.25;5.65;;;;;;;4.63;83.85;100810.25;6275783;22;20011;-75
2022/04/26 05:33:46;;;;;;;6.40;4.70;;;;;;;4.58;83.91;100802.78;6274962;22;20030;-74
2022/04/26 05:36:11;;;;;;;5.57;4.10;;;;;;;4.61;83.66;100821.31;6263764;22;20007;-74
2022/04/26 05:38:36;;;;;;;7.25;5.45;;;;;;;4.63;83.63;100816.53;6272882;22;20004;-74
2022/04/26 05:41:02;;;;;;;6.75;4.43;;;;;;;4.66;83.64;100821.50;6242766;22;20016;-72
2022/04/26 05:43:28;;;;;;;5.88;4.70;;;;;;;4.77;83.76;100832.69;6283502;22;20043;-74
2022/04/26 05:45:53;;;;;;;8.80;5.55;;;;;;;4.94;83.07;100825.72;6248539;22;20661;-75
2022/04/26 05:48:19;;;;;;;7.22;4.95;;;;;;;5.03;82.48;100835.22;6227513;22;20311;-75
2022/04/26 05:50:44;;;;;;;5.65;4.32;;;;;;;5.09;82.16;100838.94;6279031;22;20417;-75
2022/04/26 05:53:10;;;;;;;7.80;4.88;;;;;;;5.01;82.02;100829.22;6252618;22;20075;-75
2022/04/26 05:55:41;;;;;;;8.57;4.78;;;;;;;5.07;82.92;100847.31;6278795;22;19999;-74
2022/04/26 05:58:07;;;;;;;6.70;4.38;;;;;;;5.17;82.41;100843.25;6277558;22;20000;-75
2022/04/26 06:00:32;;;;;;;8.27;5.57;;;;;;;5.22;81.76;100838.03;6278022;22;20464;-78
2022/04/26 06:02:57;;;;;;;8.65;5.40;;;;;;;5.30;81.43;100847.75;6258294;22;20007;-77
2022/04/26 06:05:23;;;;;;;8.18;5.95;;;;;;;5.25;81.90;100857.38;6268549;22;20007;-78
2022/04/26 06:07:49;;;;;;;8.20;5.22;;;;;;;5.23;81.80;100854.06;6207918;22;20004;-73
2022/04/26 06:10:17;;;;;;;7.80;5.35;;;;;;;5.18;81.46;100855.78;6257858;22;20012;-76
2022/04/26 06:12:46;;;;;;;8.93;5.50;;;;;;;5.17;81.63;100859.53;6233515;22;20000;-78
2022/04/26 06:15:12;;;;;;;8.50;5.93;;;;;;;5.04;82.02;100839.63;6230203;22;20026;-78
2022/04/26 06:17:38;;;;;;;8.23;5.82;;;;;;;5.11;81.93;100844.16;6257164;22;20035;-78
2022/04/26 06:20:04;;;;;;;10.30;6.03;;;;;;;5.15;82.01;100845.38;6230620;22;20017;-78
2022/04/26 06:22:29;;;;;;;10.82;5.57;;;;;;;5.28;81.48;100869.69;6258380;22;20049;-77
2022/04/26 06:24:55;;;;;;;9.25;5.57;;;;;;;5.35;81.48;100873.19;6267208;22;20529;-78
2022/04/26 06:27:23;;;;;;;10.68;6.85;;;;;;;5.32;81.41;100856.53;6286356;22;20448;-78
2022/04/26 06:29:49;;;;;;;13.85;6.82;;;;;;;5.44;81.30;100870.19;6289167;22;20029;-77
2022/04/26 06:32:19;;;;;;;9.23;6.30;;;;;;;5.53;81.63;100874.28;6260583;22;20031;-76
2022/04/26 06:34:45;;;;;;;9.57;5.82;;;;;;;5.68;81.28;100882.94;6264629;22;20010;-79
2022/04/26 06:37:12;;;;;;;7.50;5.70;;;;;;;5.79;81.07;100869.69;6313665;22;20023;-79
2022/04/26 06:39:38;;;;;;;11.07;6.38;;;;;;;5.99;81.12;100875.78;6260186;22;20082;-77
2022/04/26 06:42:04;;;;;;;8.43;5.28;;;;;;;6.24;80.54;100885.75;6288138;22;20011;-78
2022/04/26 06:44:31;;;;;;;10.18;6.40;;;;;;;6.36;79.74;100883.94;6285385;22;20004;-78
2022/04/26 06:46:56;;;;;;;8.38;6.07;;;;;;;6.50;79.93;100887.34;6283096;22;20098;-77
2022/04/26 06:49:22;;;;;;;12.60;7.22;;;;;;;6.54;78.53;100887.69;6314891;22;20073;-78
2022/04/26 06:51:47;;;;;;;9.05;5.43;;;;;;;6.57;79.50;100887.25;6288185;22;20007;-78
2022/04/26 06:54:12;;;;;;;8.88;5.40;;;;;;;6.61;78.99;100885.72;6318543;22;20003;-77
2022/04/26 06:56:40;;;;;;;9.68;4.75;;;;;;;6.72;78.64;100887.69;6266861;22;20007;-75
2022/04/26 06:59:06;;;;;;;6.20;4.75;;;;;;;6.99;79.32;100899.03;6317175;22;20104;-76
2022/04/26 07:01:32;;;;;;;11.98;5.53;;;;;;;7.11;77.86;100885.47;6315949;22;20007;-76
2022/04/26 07:03:57;;;;;;;12.05;5.28;;;;;;;7.28;77.78;100890.25;6318401;22;20006;-79
2022/04/26 07:06:23;;;;;;;9.70;5.13;;;;;;;7.41;77.03;100903.66;6317286;22;20007;-78
2022/04/26 07:08:48;;;;;;;7.40;4.88;;;;;;;7.52;76.06;100907.47;6320816;22;20034;-78
2022/04/26 07:11:17;;;;;;;7.80;5.00;;;;;;;7.63;75.46;100903.91;6320193;22;20029;-76
2022/04/26 07:13:42;;;;;;;9.88;5.40;;;;;;;7.69;75.72;100902.16;6276730;22;20058;-76
2022/04/26 07:16:18;;;;;;;;;;;;;;;;;;;;;
2022/04/26 07:18:44;;;;;;;9.38;5.22;;;;;;;7.85;75.20;100903.34;6305928;22;20010;-77
2022/04/26 07:21:09;;;;;;;7.78;4.88;;;;;;;7.87;74.31;100887.63;6293914;22;20012;-76
2022/04/26 07:23:34;;;;;;;6.47;4.40;;;;;;;8.09;73.66;100889.72;6315100;22;20003;-76
2022/04/26 07:26:00;;;;;;;5.90;4.07;;;;;;;8.18;73.92;100904.66;6281860;22;20019;-76
2022/04/26 07:28:25;;;;;;;9.95;4.55;;;;;;;8.29;73.54;100900.25;6272283;22;20016;-77
2022/04/26 07:30:51;;;;;;;8.20;4.57;;;;;;;8.40;73.75;100907.59;6256664;22;20012;-79
2022/04/26 07:36:00;;;;;;;13.07;5.37;;;;;;;8.63;72.55;100906.75;6261244;22;20018;-77
2022/04/26 07:38:26;;;;;;;9.52;5.63;;;;;;;8.63;72.17;100893.13;6268681;22;20012;-78
2022/04/26 07:40:51;;;;;;;9.40;4.90;;;;;;;8.78;71.82;100903.50;6291863;22;20002;-78
2022/04/26 07:43:16;;;;;;;9.82;4.75;;;;;;;9.18;70.83;100909.97;6246324;22;20043;-78
2022/04/26 07:45:44;;;;;;;7.07;4.22;;;;;;;9.32;70.84;100905.88;6263098;22;20016;-75
2022/04/26 07:48:20;;;;;;;5.60;4.13;;;;;;;9.39;70.08;100903.81;6290900;22;20012;-76
2022/04/26 07:50:52;;;;;;;6.30;4.15;;;;;;;9.43;69.93;100896.78;6262668;22;20091;-77
2022/04/26 07:53:17;;;;;;;6.18;3.67;;;;;;;9.73;69.44;100920.19;6303295;22;19999;-77
2022/04/26 07:55:43;;;;;;;4.18;3.38;;;;;;;9.84;69.73;100915.75;6280477;22;20243;-78
2022/04/26 07:58:10;;;;;;;5.00;3.22;;;;;;;10.07;69.00;100913.88;6280324;22;20023;-76
2022/04/26 08:00:36;;;;;;;7.47;3.50;;;;;;;10.25;67.53;100910.88;6281946;22;20003;-75
2022/04/26 08:03:05;;;;;;;4.57;3.00;;;;;;;10.42;66.52;100918.25;6282614;22;20031;-75
2022/04/26 08:05:30;;;;;;;6.28;2.78;;;;;;;10.64;65.82;100930.03;6244826;22;20023;-76
2022/04/26 08:07:56;;;;;;;3.75;2.50;;;;;;;10.75;64.94;100911.00;6280764;22;20049;-77
2022/04/26 08:10:22;;;;;;;4.57;2.55;;;;;;;10.91;64.40;100923.78;6269769;22;20410;-77
2022/04/26 08:12:47;;;;;;;5.15;2.10;;;;;;;10.99;63.48;100926.06;6281280;22;20037;-77
2022/04/26 08:15:14;;;;;;;4.18;2.35;;;;;;;11.15;62.63;100927.03;6280308;22;20007;-77
2022/04/26 08:17:40;;;;;;;3.67;2.33;;;;;;;11.29;62.76;100935.69;6280828;22;20008;-76
2022/04/26 08:20:10;;;;;;;7.28;2.78;;;;;;;11.38;62.11;100932.47;6278161;22;20008;-77
2022/04/26 08:22:35;;;;;;;5.90;2.55;;;;;;;11.55;61.67;100935.94;6273513;22;20003;-78
2022/04/26 08:28:43;;;;;;;5.38;2.35;;;;;;;11.77;59.78;100924.88;6281980;22;20068;-76
2022/04/26 08:31:22;;;;;;;;;;;;;;;;;;;;;
2022/04/26 08:33:58;;;;;;;4.43;2.00;;;;;;;12.03;58.43;100917.72;6250838;22;20027;-75
2022/04/26 08:36:43;;;;;;;;;;;;;;;;;;;;;
2022/04/26 08:39:27;;;;;;;;;;;;;;;;;;;;;
2022/04/26 08:42:00;;;;;;;;;;;;;;;12.74;56.76;100954.84;6275111;22;20359;-76
2022/04/26 08:44:27;;;;;;;3.47;1.63;;;;;;;12.60;54.69;100918.03;6268486;22;19907;-76
2022/04/26 08:52:50;;;;;;;1.80;1.55;;;;;;;13.34;53.08;100957.25;6264856;22;20015;-77
2022/04/26 08:55:23;;;;;;;3.55;1.75;;;;;;;13.25;52.11;100936.91;6279577;22;20004;-76
2022/04/26 08:57:51;;;;;;;2.90;1.70;;;;;;;13.18;50.80;100909.69;6278481;22;20000;-77
2022/04/26 09:00:17;;;;;;;2.33;1.40;;;;;;;13.46;50.33;100950.69;6279053;22;20018;-78
2022/04/26 09:03:00;;;;;;;2.78;1.60;;;;;;;13.59;50.39;100951.00;6280461;22;20299;-76
2022/04/26 09:05:25;;;;;;;3.50;1.58;;;;;;;13.77;49.54;100971.63;6280865;22;20007;-75
2022/04/26 09:07:51;;;;;;;2.90;1.42;;;;;;;13.65;49.18;100940.81;6274166;22;20056;-77
2022/04/26 09:13:45;;;;;;;2.10;1.55;;;;;;;14.12;46.10;100961.72;6274910;22;20060;-72
2022/04/26 09:16:22;;;;;;;5.32;1.27;;;;;;;15.23;44.56;100961.91;6278097;22;20000;-75
2022/04/26 09:19:16;;;;;;;3.40;1.48;;;;;;;18.07;36.81;100975.03;6273651;22;20007;-73
2022/04/26 09:22:05;;;;;;;;;;;;;;;;;;;;;
2022/04/26 09:31:41;;;;;;;2.15;1.10;;;;;;;30.92;18.82;100981.84;6264114;22;20445;-73
2022/04/26 09:34:14;;;;;;;1.38;0.90;;;;;;;32.53;18.67;100992.16;6282876;22;20015;-72
2022/04/26 09:36:50;;;;;;;2.08;1.52;;;;;;;33.80;16.28;100999.22;6309071;22;19999;-73
2022/04/26 09:39:18;;;;;;;2.40;0.93;;;;;;;34.46;15.44;101000.44;6282505;22;20078;-73
2022/04/26 09:41:49;;;;;;;1.95;1.02;;;;;;;35.38;14.70;101002.88;6281231;22;20007;-72
2022/04/26 09:53:45;;;;;;;2.05;0.95;;;;;;;40.66;11.12;100999.97;6249950;23;20015;-73
2022/04/26 09:56:13;;;;;;;1.85;1.05;;;;;;;41.39;9.74;100998.25;6223263;23;20008;-73
2022/04/26 09:58:38;;;;;;;1.42;1.00;;;;;;;41.10;9.67;100998.50;6223273;23;20011;-76
2022/04/26 10:01:04;;;;;;;1.13;0.90;;;;;;;41.43;9.26;100998.94;6247590;23;20008;-74
2022/04/26 10:03:35;;;;;;;2.10;1.00;;;;;;;41.26;9.30;100994.63;6247832;23;20004;-72
2022/04/26 10:06:03;;;;;;;1.75;1.08;;;;;;;41.64;9.27;100993.63;6245124;23;20015;-73
2022/04/26 10:08:34;;;;;;;1.30;0.88;;;;;;;41.82;9.30;100993.75;6221568;23;20011;-73
2022/04/26 10:11:01;;;;;;;3.38;0.95;;;;;;;41.90;9.23;100984.81;6248810;23;20342;-74
2022/04/26 10:13:31;;;;;;;2.03;0.80;;;;;;;42.35;8.93;100989.97;6224527;23;20011;-73
2022/04/26 10:16:10;;;;;;;1.80;1.05;;;;;;;42.26;8.73;100989.13;6247710;23;19999;-74
2022/04/26 10:18:43;;;;;;;2.53;0.82;;;;;;;42.03;8.23;101003.56;6249673;23;20000;-74
2022/04/26 10:21:09;;;;;;;;;;;;;;;41.85;7.98;100995.69;6221177;23;20091;-73
2022/04/26 10:23:50;;;;;;;2.03;1.00;;;;;;;41.93;8.57;100998.28;6247759;23;19912;-73
2022/04/26 10:26:24;;;;;;;1.23;0.80;;;;;;;42.67;7.88;100998.50;6245620;23;20008;-72
2022/04/26 10:29:17;;;;;;;1.60;0.95;;;;;;;43.57;8.13;101003.94;6246279;23;20435;-73
2022/04/26 10:31:46;;;;;;;2.17;1.20;;;;;;;43.95;7.00;101003.84;6240571;23;20031;-73
2022/04/26 10:34:14;;;;;;;2.25;0.85;;;;;;;44.09;7.20;101008.91;6249294;23;20008;-73
2022/04/26 10:36:40;;;;;;;1.45;0.98;;;;;;;44.13;6.73;101009.50;6246353;23;20008;-73
2022/04/26 10:39:06;;;;;;;1.15;0.80;;;;;;;44.09;7.10;101008.91;6249367;23;20008;-72
2022/04/26 10:41:36;;;;;;;1.65;1.00;;;;;;;44.74;6.64;101005.66;6248479;23;20003;-74
2022/04/26 10:44:32;;;;;;;2.33;1.25;;;;;;;44.92;6.56;101008.41;6251672;23;20008;-75
2022/04/26 10:47:01;;;;;;;1.02;0.88;;;;;;;45.33;6.84;101013.69;6251062;23;20004;-75
2022/04/26 10:49:32;;;;;;;1.52;1.23;;;;;;;46.31;6.55;101015.59;6248323;22;20019;-74
2022/04/26 10:52:18;;;;;;;1.23;1.00;;;;;;;46.66;6.23;101009.00;6249588;23;20121;-74
2022/04/26 10:54:47;;;;;;;1.70;1.17;;;;;;;46.55;5.99;101005.94;6249157;23;20095;-75
2022/04/26 10:57:18;;;;;;;1.90;1.17;;;;;;;44.99;6.16;101010.09;6249479;23;20007;-75
2022/04/26 10:59:59;;;;;;;1.35;1.00;;;;;;;45.43;6.41;101006.53;6249933;23;20010;-75
2022/04/26 11:02:31;;;;;;;0.77;0.52;;;;;;;45.90;6.05;101006.00;6247618;23;20007;-74
2022/04/26 11:05:08;;;;;;;2.78;1.10;;;;;;;46.43;5.62;101001.31;6248194;23;20374;-76
2022/04/26 11:07:34;;;;;;;1.98;1.00;;;;;;;46.72;5.50;100993.78;6249785;23;20000;-74
2022/04/26 11:10:01;;;;;;;1.10;1.00;;;;;;;47.19;5.10;101009.88;6250409;23;20008;-75
2022/04/26 11:12:29;;;;;;;0.90;0.82;;;;;;;47.49;5.58;100994.41;6248021;23;20433;-75
2022/04/26 11:15:03;;;;;;;2.05;1.00;;;;;;;48.05;5.20;101006.44;6230028;23;20023;-75
2022/04/26 11:17:29;;;;;;;1.00;0.90;;;;;;;48.90;4.90;101006.13;6255107;23;20000;-75
2022/04/26 11:19:56;;;;;;;2.78;0.75;;;;;;;49.46;4.75;100999.63;6229274;23;20019;-74
2022/04/26 11:22:24;;;;;;;5.32;1.05;;;;;;;49.20;4.39;100989.09;6253942;23;20004;-75
2022/04/26 11:28:14;;;;;;;0.93;0.80;;;;;;;49.70;4.83;100990.44;6181314;23;20071;-76
2022/04/26 11:31:12;;;;;;;1.98;1.17;;;;;;;49.36;4.49;100996.22;6184233;23;20036;-74
2022/04/26 11:33:49;;;;;;;1.40;0.90;;;;;;;49.64;4.67;100980.94;6144223;23;20096;-75
2022/04/26 11:36:17;;;;;;;1.48;0.95;;;;;;;49.47;4.82;100980.13;6184703;23;20004;-76
2022/04/26 11:38:42;;;;;;;1.42;0.80;;;;;;;48.74;5.32;100988.13;6186423;23;20001;-76
2022/04/26 11:41:25;;;;;;;2.00;0.98;;;;;;;48.23;5.47;100984.19;6160367;23;20159;-75
2022/04/26 11:44:23;;;;;;;2.33;0.77;;;;;;;47.40;5.57;100980.09;6187982;23;20029;-76
2022/04/26 11:47:33;;;;;;;1.67;0.80;;;;;;;47.33;5.54;100985.03;6159498;23;20005;-79
2022/04/26 11:54:19;;;;;;;;;;;;;;;;;;;;;
2022/04/26 11:57:36;;;;;;;2.13;0.93;;;;;;;48.17;5.66;100989.94;6053797;23;20086;-76
2022/04/26 12:01:06;;;;;;;;;;;;;;;;;;;;;
2022/04/26 12:03:40;;;;;;;1.30;0.77;;;;;;;48.17;4.93;100987.03;6065112;23;20029;-78
2022/04/26 12:06:15;;;;;;;1.30;0.90;;;;;;;47.73;5.38;100956.44;6207543;23;20020;-78
2022/04/26 12:09:39;;;;;;;0.85;0.68;;;;;;;48.41;5.51;100948.97;6195637;23;20000;-78
2022/04/26 12:13:13;;;;;;;;;;;;;;;;;;;;;
2022/04/26 12:15:42;;;;;;;;;;;;;;;49.97;4.34;100975.63;6037342;23;20076;-74
2022/04/26 12:19:50;;;;;;;2.15;1.05;;;;;;;49.57;4.50;100979.34;6155519;23;19920;-75
2022/04/26 12:30:09;;;;;;;1.17;0.80;;;;;;;50.44;4.44;100941.66;5980276;24;20098;-74
2022/04/26 12:33:36;;;;;;;1.10;0.80;;;;;;;50.51;3.58;100940.28;5980733;23;20023;-73
2022/04/26 12:36:06;;;;;;;0.60;0.60;;;;;;;48.50;4.04;100935.56;6044948;23;20537;-74
2022/04/26 12:38:51;;;;;;;0.98;0.75;;;;;;;48.40;4.02;100964.75;6060138;23;20317;-77
2022/04/26 12:41:29;;;;;;;0.70;0.70;;;;;;;48.49;4.34;100969.56;6154284;23;20020;-73
2022/04/26 12:44:13;;;;;;;;;;;;;;;;;;;;;
2022/04/26 12:50:48;;;;;;;;;;;;;;;;;;;;;
2022/04/26 12:53:25;;;;;;;0.50;0.50;;;;;;;49.36;3.72;100938.16;6230317;23;20075;-73
2022/04/26 12:56:21;;;;;;;0.55;0.50;;;;;;;50.11;3.86;100952.06;6244759;23;20015;-74
2022/04/26 12:58:56;;;;;;;0.80;0.73;;;;;;;49.50;3.51;100926.78;6244560;23;20004;-73
2022/04/26 13:08:10;;;;;;;1.40;0.85;;;;;;;50.10;3.00;100923.53;6243213;22;20004;-76
2022/04/26 13:10:44;;;;;;;1.75;0.60;;;;;;;49.83;3.04;100922.25;6245465;23;20091;-74
2022/04/26 13:13:52;;;;;;;;;;;;;;;;;;;;;
2022/04/26 13:16:31;;;;;;;0.85;0.63;;;;;;;50.51;3.22;100924.94;6247138;23;20083;-74
2022/04/26 13:19:02;;;;;;;1.98;0.90;;;;;;;50.03;3.05;100919.03;6219399;23;20079;-75
2022/04/26 13:21:39;;;;;;;0.60;0.60;;;;;;;49.35;3.34;100924.94;6170606;23;20050;-75
2022/04/26 13:24:25;;;;;;;;;;;;;;;;;;;;;
2022/04/26 13:26:51;;;;;;;1.42;0.80;;;;;;;49.68;3.02;100952.41;6245609;23;20542;-74
2022/04/26 13:29:21;;;;;;;0.70;0.70;;;;;;;49.23;3.38;100918.34;6245458;23;20019;-75
2022/04/26 13:32:39;;;;;;;;;;;;;;;;;;;;;
2022/04/26 13:35:15;;;;;;;1.23;0.98;;;;;;;49.77;3.09;100925.97;6196114;23;20023;-75
2022/04/26 13:37:57;;;;;;;;;;;;;;;;;;;;;
2022/04/26 13:40:29;;;;;;;1.17;0.80;;;;;;;50.02;3.44;100934.91;6222248;23;20095;-76
2022/04/26 13:46:42;;;;;;;1.80;1.23;;;;;;;49.02;3.34;100911.97;6201101;23;20061;-75
2022/04/26 13:52:29;;;;;;;1.30;0.90;;;;;;;50.47;2.99;100934.75;6096317;23;20011;-78
2022/04/26 14:02:37;;;;;;;2.08;0.88;;;;;;;44.14;4.87;100921.78;6152964;23;20055;-75
2022/04/26 14:05:24;;;;;;;1.33;0.95;;;;;;;43.95;5.31;100888.63;6146472;23;20006;-75
2022/04/26 14:08:36;;;;;;;2.60;0.90;;;;;;;44.14;5.39;100918.91;6131790;23;20141;-76
2022/04/26 14:11:21;;;;;;;1.15;0.80;;;;;;;45.81;5.56;100897.13;6149569;23;20012;-76
2022/04/26 14:23:02;;;;;;;1.60;0.93;;;;;;;40.56;6.69;100883.69;6223926;23;20066;-78
2022/04/26 14:28:22;;;;;;;1.10;0.80;;;;;;;38.80;7.43;100874.91;6242580;23;20027;-77
2022/04/26 14:31:26;;;;;;;;;;;;;;;;;;;;;
2022/04/26 14:34:16;;;;;;;0.93;0.82;;;;;;;39.97;7.74;100891.81;6186096;23;20065;-76
2022/04/26 14:36:51;;;;;;;;;;;;;;;;;;;;;
2022/04/26 14:39:28;;;;;;;1.05;0.80;;;;;;;45.39;5.60;100876.00;6252925;23;20024;-77
2022/04/26 14:42:20;;;;;;;1.40;0.90;;;;;;;46.61;4.78;100896.94;6255966;23;20004;-77
2022/04/26 14:44:47;;;;;;;2.17;1.00;;;;;;;46.23;4.79;100895.16;6208541;23;20364;-76
2022/04/26 14:47:20;;;;;;;1.08;0.90;;;;;;;45.97;4.72;100902.41;6247181;23;20004;-76
2022/04/26 14:50:00;;;;;;;1.67;1.00;;;;;;;42.19;5.94;100881.09;6247223;22;20040;-76
2022/04/26 14:52:37;;;;;;;2.03;1.15;;;;;;;41.63;6.36;100851.38;6223637;23;20004;-77
2022/04/26 14:55:22;;;;;;;2.00;1.00;;;;;;;43.15;5.38;100863.66;6223375;23;20015;-77
2022/04/26 14:58:14;;;;;;;1.23;0.82;;;;;;;44.42;5.11;100876.31;6249260;23;20011;-76
2022/04/26 15:00:45;;;;;;;0.98;0.88;;;;;;;45.71;5.07;100858.94;6247153;23;20016;-77
2022/04/26 15:03:14;;;;;;;0.90;0.88;;;;;;;46.46;4.68;100881.75;6223493;23;20019;-77
2022/04/26 15:16:37;;;;;;;1.27;0.70;;;;;;;46.85;4.46;100879.31;6228711;23;20050;-77
2022/04/26 15:17:29;;;;;;;2.78;0.70;;;;;;;39.64;7.09;100880.59;6231212;23;20026;-77
2022/04/26 15:19:58;;;;;;;0.88;0.68;;;;;;;39.30;7.18;100861.19;6251230;23;19996;-76
2022/04/26 15:22:32;;;;;;;0.80;0.80;;;;;;;39.74;7.42;100855.75;6224703;23;20007;-77
2022/04/26 15:25:11;;;;;;;;;;;;;;;;;;;;;
2022/04/26 15:27:41;;;;;;;1.15;0.70;;;;;;;43.37;6.01;100877.81;6226906;23;20439;-78
2022/04/26 15:30:11;;;;;;;1.38;0.65;;;;;;;43.72;5.73;100862.16;6249745;23;20323;-77
2022/04/26 15:32:56;;;;;;;1.20;0.93;;;;;;;43.07;5.54;100877.59;6250911;23;20058;-78
2022/04/26 15:35:31;;;;;;;1.15;0.90;;;;;;;39.55;7.01;100866.16;6227339;23;20103;-77
2022/04/26 15:37:57;;;;;;;0.90;0.80;;;;;;;35.87;8.40;100868.97;6226357;23;20300;-77
2022/04/26 15:40:22;;;;;;;0.60;0.60;;;;;;;32.89;10.00;100864.75;6225160;23;20074;-77
2022/04/26 15:43:10;;;;;;;1.50;0.90;;;;;;;30.84;11.87;100875.69;6252907;23;20008;-76
2022/04/26 15:45:48;;;;;;;0.93;0.80;;;;;;;29.08;13.14;100867.16;6227999;23;20000;-77
2022/04/26 15:48:26;;;;;;;1.50;0.90;;;;;;;27.76;14.19;100877.88;6247725;23;20330;-77
2022/04/26 15:50:57;;;;;;;1.08;0.80;;;;;;;27.07;14.37;100870.09;6222341;23;20432;-74
2022/04/26 15:53:23;;;;;;;1.88;0.80;;;;;;;26.81;15.68;100868.75;6197377;23;20071;-77
2022/04/26 15:56:12;;;;;;;2.03;0.90;;;;;;;28.33;15.25;100867.69;6220361;23;20009;-76
2022/04/26 15:58:49;;;;;;;0.80;0.80;;;;;;;32.78;12.93;100861.94;6202583;23;20010;-77
2022/04/26 16:01:25;;;;;;;3.42;0.75;;;;;;;33.40;12.04;100856.88;6218861;23;20004;-78
2022/04/26 16:04:27;;;;;;;;;;;;;;;;;;;;;
2022/04/26 16:06:55;;;;;;;1.38;0.90;;;;;;;31.69;12.91;100882.97;6223509;23;20028;-77
2022/04/26 16:21:46;;;;;;;0.90;0.70;;;;;;;30.19;13.43;100878.06;6236688;23;20067;-80
2022/04/26 16:24:24;;;;;;;1.65;1.27;;;;;;;29.47;14.09;100882.94;6223888;23;19997;-79
2022/04/26 16:26:49;;;;;;;1.83;0.90;;;;;;;32.08;13.41;100865.25;6201793;23;20012;-77
2022/04/26 16:29:51;;;;;;;;;;;;;;;;;;;;;
2022/04/26 16:32:41;;;;;;;;;;;;;;;;;;;;;
2022/04/26 16:35:22;;;;;;;1.20;0.63;;;;;;;37.79;10.12;100883.97;6172718;23;20040;-78
2022/04/26 16:38:06;;;;;;;;;;;;;;;;;;;;;
2022/04/26 16:40:43;;;;;;;3.55;0.98;;;;;;;37.40;9.51;100879.16;6199035;23;20032;-77
2022/04/26 16:43:18;;;;;;;0.77;0.70;;;;;;;34.41;10.73;100865.47;6196082;23;20009;-78
2022/04/26 16:45:54;;;;;;;0.82;0.65;;;;;;;32.42;11.86;100881.81;6194920;23;20004;-79
2022/04/26 16:48:26;;;;;;;1.73;1.10;;;;;;;30.44;13.62;100896.00;6223186;23;20417;-78
2022/04/26 16:50:59;;;;;;;2.15;0.80;;;;;;;29.02;14.69;100903.28;6220232;23;20443;-78
2022/04/26 16:53:27;;;;;;;4.63;1.30;;;;;;;29.15;14.36;100861.63;6195985;23;20000;-77
2022/04/26 16:56:11;;;;;;;1.20;0.82;;;;;;;28.72;14.99;100861.88;6194542;23;20111;-79
2022/04/26 16:58:41;;;;;;;;;;;;;;;27.79;15.06;100899.66;6221360;23;20000;-76
2022/04/26 17:01:20;;;;;;;;;;;;;;;;;;;;;
2022/04/26 17:03:57;;;;;;;3.08;1.00;;;;;;;26.16;17.21;100871.97;6194372;23;20057;-75
2022/04/26 17:06:35;;;;;;;0.50;0.50;;;;;;;26.82;16.60;100889.97;6215852;23;20086;-76
2022/04/26 17:09:16;;;;;;;;;;;;;;;;;;;;;
2022/04/26 17:11:42;;;;;;;1.15;1.00;;;;;;;27.66;16.29;100905.41;6169127;23;20519;-77
2022/04/26 17:14:42;;;;;;;;;;;;;;;;;;;;;
2022/04/26 17:17:21;;;;;;;2.08;0.90;;;;;;;25.70;17.12;100867.56;6207385;23;20032;-76
2022/04/26 17:23:48;;;;;;;1.95;1.10;;;;;;;26.93;17.13;100907.88;6180476;23;20311;-77
2022/04/26 17:26:30;;;;;;;2.92;1.35;;;;;;;25.17;18.00;100866.84;6142489;23;20016;-77
2022/04/26 17:28:59;;;;;;;2.97;1.00;;;;;;;23.82;19.24;100854.53;6216596;23;20015;-78
2022/04/26 17:31:51;;;;;;;1.92;1.08;;;;;;;23.35;20.40;100903.09;6219665;23;20008;-76
2022/04/26 17:34:57;;;;;;;1.08;0.95;;;;;;;22.06;20.84;100904.28;6221427;23;20008;-76
2022/04/26 17:37:43;;;;;;;1.73;1.10;;;;;;;21.06;22.40;100868.84;6188612;23;20005;-77
2022/04/26 17:40:19;;;;;;;1.38;1.20;;;;;;;20.91;23.47;100903.53;6221105;23;20062;-78
2022/04/26 17:43:26;;;;;;;1.52;1.17;;;;;;;21.84;23.11;100905.31;6222828;23;20004;-77
2022/04/26 17:46:13;;;;;;;;;;;;;;;;;;;;;
2022/04/26 17:51:52;;;;;;;1.83;1.10;;;;;;;22.31;21.77;100922.03;6254725;23;20022;-75
2022/04/26 17:57:14;;;;;;;1.75;1.40;;;;;;;21.02;23.04;100929.03;6238778;23;20151;-79
2022/04/26 18:00:14;;;;;;;;;;;;;;;;;;;;;
2022/04/26 18:02:54;;;;;;;1.73;1.30;;;;;;;19.34;24.43;100878.53;6245299;23;20026;-76
2022/04/26 18:05:52;;;;;;;2.50;1.30;;;;;;;18.92;25.35;100910.31;6200259;23;20001;-78
2022/04/26 18:08:41;;;;;;;1.48;1.10;;;;;;;18.39;25.78;100878.44;6225452;23;20323;-78
2022/04/26 18:11:45;;;;;;;;;;;;;;;;;;;;;
2022/04/26 18:14:54;;;;;;;;;;;;;;;;;;;;;
2022/04/26 18:20:53;;;;;;;;;;;;;;;;;;;;;